Time;durP1;ratioP1;P1;durP2;ratioP2;P2;SDS_P1;SDS_P2;PMS_P1;PMS_P2;Temp;Humidity;BMP_temperature;BMP_pressure;BME280_temperature;BME280_humidity;BME280_pressure;Samples;Min_cycle;Max_cycle;Signal;HPM_P1;HPM_P2
2023/03/31 00:00:21;;;;;;;1.92;0.95;;;;;;;;;;5074193;28;20082;-60
2023/03/31 00:02:47;;;;;;;11.18;1.55;;;;;;;;;;5074239;28;20406;-60
2023/03/31 00:05:16;;;;;;;7.30;1.58;;;;;;;;;;5074418;28;20033;-60
2023/03/31 00:07:42;;;;;;;2.50;1.35;;;;;;;;;;5073856;28;20124;-60
2023/03/31 00:10:09;;;;;;;3.03;1.15;;;;;;;;;;5074603;28;20066;-60
2023/03/31 00:12:35;;;;;;;4.65;1.23;;;;;;;;;;5074042;28;20059;-60
2023/03/31 00:15:02;;;;;;;6.85;2.80;;;;;;;;;;5073922;28;20048;-60
2023/03/31 00:17:31;;;;;;;5.20;1.20;;;;;;;;;;5073383;28;20467;-60
2023/03/31 00:19:59;;;;;;;9.30;1.70;;;;;;;;;;5073767;28;20463;-60
2023/03/31 00:22:26;;;;;;;7.72;1.33;;;;;;;;;;5073670;28;20062;-60
2023/03/31 00:24:52;;;;;;;5.30;1.20;;;;;;;;;;5073549;28;20100;-60
2023/03/31 00:27:18;;;;;;;2.67;0.88;;;;;;;;;;5074028;28;20515;-60
2023/03/31 00:29:44;;;;;;;4.50;1.33;;;;;;;;;;5076551;28;20085;-60
2023/03/31 00:32:10;;;;;;;4.15;0.95;;;;;;;;;;5078952;28;20025;-60
2023/03/31 00:34:37;;;;;;;6.68;1.23;;;;;;;;;;5079941;28;20028;-60
2023/03/31 00:37:04;;;;;;;2.95;1.20;;;;;;;;;;5080529;28;20366;-60
2023/03/31 00:39:34;;;;;;;2.03;0.95;;;;;;;;;;5080189;28;20025;-60
2023/03/31 00:42:02;;;;;;;5.07;1.42;;;;;;;;;;5080081;28;20035;-60
2023/03/31 00:44:29;;;;;;;3.55;1.35;;;;;;;;;;5080965;28;20029;-60
2023/03/31 00:46:55;;;;;;;3.83;1.40;;;;;;;;;;5080640;28;20398;-60
2023/03/31 00:49:33;;;;;;;4.85;1.88;;;;;;;;;;5080001;28;20056;-60
2023/03/31 00:52:05;;;;;;;6.35;2.30;;;;;;;;;;5080087;28;20120;-60
2023/03/31 00:54:32;;;;;;;3.50;1.42;;;;;;;;;;5080102;28;20469;-60
2023/03/31 00:57:02;;;;;;;1.98;1.10;;;;;;;;;;5080093;28;20082;-60
2023/03/31 00:59:30;;;;;;;2.00;0.98;;;;;;;;;;5080018;28;20489;-60
2023/03/31 01:01:58;;;;;;;2.17;0.90;;;;;;;;;;5079674;28;20047;-60
2023/03/31 01:04:24;;;;;;;3.40;1.20;;;;;;;;;;5079954;28;20028;-59
2023/03/31 01:06:56;;;;;;;6.82;1.58;;;;;;;;;;5080290;28;20103;-59
2023/03/31 01:09:23;;;;;;;4.22;1.20;;;;;;;;;;5079257;28;20043;-59
2023/03/31 01:11:49;;;;;;;2.10;1.00;;;;;;;;;;5080633;28;20029;-59
2023/03/31 01:14:15;;;;;;;4.60;2.05;;;;;;;;;;5079476;28;20093;-59
2023/03/31 01:16:41;;;;;;;3.75;1.40;;;;;;;;;;5079819;28;20035;-59
2023/03/31 01:19:28;;;;;;;2.45;1.25;;;;;;;;;;5080110;28;20052;-59
2023/03/31 01:22:06;;;;;;;2.78;0.80;;;;;;;;;;5080614;28;20029;-59
2023/03/31 01:25:00;;;;;;;4.50;1.75;;;;;;;;;;5080338;28;20033;-59
2023/03/31 01:27:32;;;;;;;4.07;2.30;;;;;;;;;;5080359;28;20044;-59
2023/03/31 01:30:12;;;;;;;4.82;1.05;;;;;;;;;;5079380;28;20462;-59
2023/03/31 01:32:38;;;;;;;6.23;1.03;;;;;;;;;;5079839;28;20028;-59
2023/03/31 01:35:22;;;;;;;5.75;1.30;;;;;;;;;;5079587;28;20355;-59
2023/03/31 01:38:07;;;;;;;4.38;1.35;;;;;;;;;;5079702;28;20025;-59
2023/03/31 01:40:51;;;;;;;3.75;1.80;;;;;;;;;;5079083;28;20025;-59
2023/03/31 01:43:33;;;;;;;4.50;1.25;;;;;;;;;;5076148;28;20027;-59
2023/03/31 01:46:02;;;;;;;4.20;1.30;;;;;;;;;;5076761;28;20032;-59
2023/03/31 01:48:29;;;;;;;2.55;1.27;;;;;;;;;;5076662;28;20484;-59
2023/03/31 01:51:01;;;;;;;5.15;1.60;;;;;;;;;;5076363;28;20031;-59
2023/03/31 01:53:35;;;;;;;3.00;1.52;;;;;;;;;;5076339;28;20025;-59
2023/03/31 01:56:07;;;;;;;3.47;1.25;;;;;;;;;;5076824;28;20351;-59
2023/03/31 01:58:41;;;;;;;4.13;1.27;;;;;;;;;;5076489;28;20097;-59
2023/03/31 02:01:19;;;;;;;3.92;2.00;;;;;;;;;;5076684;28;20025;-59
2023/03/31 02:03:53;;;;;;;3.05;1.65;;;;;;;;;;5076361;28;20374;-59
2023/03/31 02:06:21;;;;;;;6.65;1.48;;;;;;;;;;5076310;28;20078;-59
2023/03/31 02:08:50;;;;;;;6.20;1.88;;;;;;;;;;5076052;28;20463;-59
2023/03/31 02:11:16;;;;;;;3.47;1.55;;;;;;;;;;5075953;28;20020;-59
2023/03/31 02:13:43;;;;;;;4.43;1.83;;;;;;;;;;5075836;28;20047;-59
2023/03/31 02:16:13;;;;;;;3.28;1.27;;;;;;;;;;5076467;28;20060;-59
2023/03/31 02:18:40;;;;;;;1.70;0.70;;;;;;;;;;5076042;28;20028;-59
2023/03/31 02:21:07;;;;;;;4.75;1.23;;;;;;;;;;5076074;28;20029;-59
2023/03/31 02:23:36;;;;;;;2.50;1.30;;;;;;;;;;5075907;28;20024;-59
2023/03/31 02:26:11;;;;;;;5.15;1.33;;;;;;;;;;5075993;28;20085;-59
2023/03/31 02:28:37;;;;;;;4.10;1.23;;;;;;;;;;5075970;28;20028;-59
2023/03/31 02:31:20;;;;;;;8.77;1.27;;;;;;;;;;5075489;28;20025;-59
2023/03/31 02:33:47;;;;;;;3.55;1.45;;;;;;;;;;5076040;28;20040;-59
2023/03/31 02:36:13;;;;;;;7.47;1.73;;;;;;;;;;5075839;28;20036;-59
2023/03/31 02:38:43;;;;;;;7.90;1.08;;;;;;;;;;5075666;28;20029;-59
2023/03/31 02:41:09;;;;;;;2.60;1.25;;;;;;;;;;5075968;28;20024;-59
2023/03/31 02:43:35;;;;;;;3.08;1.00;;;;;;;;;;5075364;28;20028;-59
2023/03/31 02:46:01;;;;;;;5.20;2.03;;;;;;;;;;5075586;28;20032;-59
2023/03/31 02:48:30;;;;;;;3.40;1.35;;;;;;;;;;5075245;28;20120;-59
2023/03/31 02:51:08;;;;;;;4.30;2.00;;;;;;;;;;5075194;28;20025;-59
2023/03/31 02:53:40;;;;;;;4.03;2.00;;;;;;;;;;5074915;28;20050;-59
2023/03/31 02:56:24;;;;;;;2.30;0.88;;;;;;;;;;5075375;28;20040;-59
2023/03/31 02:59:00;;;;;;;3.35;2.30;;;;;;;;;;5075612;28;20032;-59
2023/03/31 03:01:58;;;;;;;3.78;1.10;;;;;;;;;;5075524;28;20095;-59
2023/03/31 03:04:28;;;;;;;2.90;1.60;;;;;;;;;;5052150;28;20037;-59
2023/03/31 03:07:01;;;;;;;3.00;1.23;;;;;;;;;;5075320;28;20041;-59
2023/03/31 03:09:42;;;;;;;6.70;1.27;;;;;;;;;;5075412;28;20063;-59
2023/03/31 03:12:13;;;;;;;1.85;1.25;;;;;;;;;;5075070;28;20125;-59
2023/03/31 03:14:44;;;;;;;4.40;1.10;;;;;;;;;;5075545;28;20048;-59
2023/03/31 03:17:13;;;;;;;2.95;1.02;;;;;;;;;;5075236;28;20115;-59
2023/03/31 03:19:40;;;;;;;5.10;1.27;;;;;;;;;;5074963;28;20021;-59
2023/03/31 03:22:06;;;;;;;2.90;1.23;;;;;;;;;;5074541;28;20059;-59
2023/03/31 03:24:33;;;;;;;6.22;1.75;;;;;;;;;;5074573;28;20029;-59
2023/03/31 03:26:59;;;;;;;2.75;1.50;;;;;;;;;;5074716;28;20036;-59
2023/03/31 03:29:26;;;;;;;4.18;2.00;;;;;;;;;;5074926;28;20397;-59
2023/03/31 03:31:52;;;;;;;4.88;1.67;;;;;;;;;;5074958;28;20029;-59
2023/03/31 03:34:19;;;;;;;2.80;1.60;;;;;;;;;;5074725;28;20031;-59
2023/03/31 03:36:45;;;;;;;2.13;1.20;;;;;;;;;;5074674;28;20032;-59
2023/03/31 03:39:11;;;;;;;1.80;1.10;;;;;;;;;;5074205;28;20028;-59
2023/03/31 03:41:37;;;;;;;3.20;1.55;;;;;;;;;;5074246;28;20024;-59
2023/03/31 03:44:04;;;;;;;3.97;1.80;;;;;;;;;;5074302;28;20096;-59
2023/03/31 03:46:30;;;;;;;2.60;1.50;;;;;;;;;;5074698;28;20474;-59
2023/03/31 03:48:56;;;;;;;3.83;1.85;;;;;;;;;;5074679;28;20039;-59
2023/03/31 03:51:22;;;;;;;3.15;1.48;;;;;;;;;;5074138;28;20070;-59
2023/03/31 03:53:48;;;;;;;3.03;1.60;;;;;;;;;;5074879;28;20097;-59
2023/03/31 03:56:14;;;;;;;4.93;1.65;;;;;;;;;;5074153;28;20032;-59
2023/03/31 03:58:40;;;;;;;5.43;1.35;;;;;;;;;;5073686;28;20478;-59
2023/03/31 04:01:06;;;;;;;4.00;1.75;;;;;;;;;;5073689;28;20029;-59
2023/03/31 04:03:32;;;;;;;3.92;1.60;;;;;;;;;;5073630;28;20029;-59
2023/03/31 04:05:58;;;;;;;3.03;1.55;;;;;;;;;;5073754;28;20036;-59
2023/03/31 04:08:24;;;;;;;5.07;1.90;;;;;;;;;;5073931;28;20489;-59
2023/03/31 04:10:50;;;;;;;2.40;1.58;;;;;;;;;;5074168;28;20490;-59
2023/03/31 04:13:17;;;;;;;4.07;2.03;;;;;;;;;;5073876;28;20103;-59
2023/03/31 04:15:43;;;;;;;3.53;1.48;;;;;;;;;;5074109;28;20044;-59
2023/03/31 04:18:09;;;;;;;2.60;1.77;;;;;;;;;;5073793;28;20048;-59
2023/03/31 04:20:36;;;;;;;8.68;2.17;;;;;;;;;;5073803;28;20031;-59
2023/03/31 04:23:04;;;;;;;4.88;1.85;;;;;;;;;;5074019;28;20035;-59
2023/03/31 04:25:30;;;;;;;7.47;2.40;;;;;;;;;;5073973;28;20032;-59
2023/03/31 04:27:57;;;;;;;7.82;2.03;;;;;;;;;;5074290;28;20035;-60
2023/03/31 04:30:24;;;;;;;5.75;2.05;;;;;;;;;;5073622;28;20036;-60
2023/03/31 04:32:51;;;;;;;3.05;2.08;;;;;;;;;;5073656;28;20391;-60
2023/03/31 04:35:19;;;;;;;8.27;2.35;;;;;;;;;;5073709;28;20032;-60
2023/03/31 04:37:45;;;;;;;2.70;1.98;;;;;;;;;;5074192;28;20082;-60
2023/03/31 04:40:11;;;;;;;3.30;1.73;;;;;;;;;;5073686;28;20028;-60
2023/03/31 04:42:37;;;;;;;6.00;2.13;;;;;;;;;;5074395;28;20046;-60
2023/03/31 04:45:03;;;;;;;5.63;3.42;;;;;;;;;;5073795;28;20509;-60
2023/03/31 04:47:29;;;;;;;6.72;2.25;;;;;;;;;;5073475;28;20100;-60
2023/03/31 04:49:55;;;;;;;5.05;2.20;;;;;;;;;;5073546;28;20052;-60
2023/03/31 04:52:21;;;;;;;4.00;1.85;;;;;;;;;;5073958;28;20032;-60
2023/03/31 04:54:47;;;;;;;9.23;2.83;;;;;;;;;;5073498;28;20048;-60
2023/03/31 04:57:13;;;;;;;5.20;2.65;;;;;;;;;;5073811;28;20036;-60
2023/03/31 04:59:39;;;;;;;5.72;2.10;;;;;;;;;;5073729;28;20029;-60
2023/03/31 05:02:05;;;;;;;6.47;2.25;;;;;;;;;;5073175;28;20035;-60
2023/03/31 05:04:31;;;;;;;7.05;2.75;;;;;;;;;;5073351;28;20029;-60
2023/03/31 05:06:57;;;;;;;6.20;2.08;;;;;;;;;;5073669;28;20032;-60
2023/03/31 05:09:23;;;;;;;5.35;2.25;;;;;;;;;;5073273;28;20060;-60
2023/03/31 05:11:48;;;;;;;5.95;2.53;;;;;;;;;;5073329;28;20051;-60
2023/03/31 05:14:14;;;;;;;4.20;2.45;;;;;;;;;;5073029;28;20044;-58
2023/03/31 05:16:40;;;;;;;5.18;2.83;;;;;;;;;;5074730;28;20036;-58
2023/03/31 05:19:07;;;;;;;6.82;2.35;;;;;;;;;;5077188;28;20393;-58
2023/03/31 05:21:32;;;;;;;5.30;2.47;;;;;;;;;;5077454;28;20090;-58
2023/03/31 05:23:59;;;;;;;6.80;2.67;;;;;;;;;;5077343;28;20028;-58
2023/03/31 05:26:25;;;;;;;8.65;3.42;;;;;;;;;;5077284;28;20135;-58
2023/03/31 05:28:52;;;;;;;5.82;2.55;;;;;;;;;;5076705;28;20032;-58
2023/03/31 05:31:18;;;;;;;4.32;2.28;;;;;;;;;;5076410;28;20021;-58
2023/03/31 05:33:44;;;;;;;4.65;2.50;;;;;;;;;;5077522;28;20089;-58
2023/03/31 05:36:12;;;;;;;6.80;2.83;;;;;;;;;;5077151;28;20371;-58
2023/03/31 05:38:38;;;;;;;6.50;2.83;;;;;;;;;;5077112;28;20028;-58
2023/03/31 05:41:05;;;;;;;6.05;3.00;;;;;;;;;;5076779;28;20028;-58
2023/03/31 05:43:31;;;;;;;4.50;2.55;;;;;;;;;;5077138;28;20035;-58
2023/03/31 05:45:57;;;;;;;9.18;2.72;;;;;;;;;;5076956;28;20115;-58
2023/03/31 05:48:23;;;;;;;4.88;2.90;;;;;;;;;;5076429;28;20068;-58
2023/03/31 05:50:49;;;;;;;6.15;2.80;;;;;;;;;;5076927;28;20074;-58
2023/03/31 05:53:15;;;;;;;7.30;3.72;;;;;;;;;;5076430;28;20031;-58
2023/03/31 05:55:41;;;;;;;5.22;4.05;;;;;;;;;;5076092;28;20449;-58
2023/03/31 05:58:07;;;;;;;6.70;3.10;;;;;;;;;;5076232;28;20074;-58
2023/03/31 06:00:36;;;;;;;7.53;3.40;;;;;;;;;;5076131;28;20020;-58
2023/03/31 06:03:02;;;;;;;5.10;2.97;;;;;;;;;;5076485;28;20103;-58
2023/03/31 06:05:29;;;;;;;6.28;3.53;;;;;;;;;;5076337;28;20043;-58
2023/03/31 06:07:56;;;;;;;5.68;2.70;;;;;;;;;;5076527;28;20048;-58
2023/03/31 06:10:22;;;;;;;4.63;3.13;;;;;;;;;;5076431;28;20029;-57
2023/03/31 06:12:48;;;;;;;4.57;3.35;;;;;;;;;;5076272;28;20485;-58
2023/03/31 06:15:14;;;;;;;8.88;3.85;;;;;;;;;;5076282;28;20133;-58
2023/03/31 06:17:40;;;;;;;3.25;2.65;;;;;;;;;;5075785;28;20032;-58
2023/03/31 06:20:06;;;;;;;6.32;3.47;;;;;;;;;;5075578;28;20029;-58
2023/03/31 06:22:33;;;;;;;7.05;3.13;;;;;;;;;;5075838;28;20025;-58
2023/03/31 06:24:59;;;;;;;7.82;3.75;;;;;;;;;;5076199;28;20052;-58
2023/03/31 06:27:25;;;;;;;5.00;3.47;;;;;;;;;;5075120;28;20037;-58
2023/03/31 06:29:50;;;;;;;3.47;2.78;;;;;;;;;;5075938;28;20029;-58
2023/03/31 06:32:16;;;;;;;5.72;4.45;;;;;;;;;;5075523;28;20120;-58
2023/03/31 06:34:42;;;;;;;5.60;3.85;;;;;;;;;;5075526;28;20050;-58
2023/03/31 06:37:08;;;;;;;5.10;2.95;;;;;;;;;;5075844;28;20025;-58
2023/03/31 06:39:34;;;;;;;6.07;2.70;;;;;;;;;;5075653;28;20040;-59
2023/03/31 06:42:00;;;;;;;4.43;2.70;;;;;;;;;;5075889;28;20119;-60
2023/03/31 06:44:26;;;;;;;4.30;3.15;;;;;;;;;;5075496;28;20459;-59
2023/03/31 06:46:52;;;;;;;4.85;3.20;;;;;;;;;;5075213;28;20059;-59
2023/03/31 06:49:18;;;;;;;5.63;3.40;;;;;;;;;;5075807;28;20067;-59
2023/03/31 06:51:44;;;;;;;4.60;3.42;;;;;;;;;;5075028;28;20531;-59
2023/03/31 06:54:10;;;;;;;11.07;4.13;;;;;;;;;;5075651;28;20086;-59
2023/03/31 06:56:36;;;;;;;11.35;4.22;;;;;;;;;;5075213;28;20029;-59
2023/03/31 06:59:02;;;;;;;5.57;4.00;;;;;;;;;;5075111;28;20028;-59
2023/03/31 07:01:28;;;;;;;7.93;3.13;;;;;;;;;;5075466;28;20028;-59
2023/03/31 07:03:54;;;;;;;6.53;4.15;;;;;;;;;;5075242;28;20020;-59
2023/03/31 07:06:20;;;;;;;7.35;4.38;;;;;;;;;;5074877;28;20036;-58
2023/03/31 07:08:47;;;;;;;4.82;3.05;;;;;;;;;;5075247;28;20095;-58
2023/03/31 07:11:12;;;;;;;8.77;3.30;;;;;;;;;;5074902;28;20020;-59
2023/03/31 07:13:38;;;;;;;5.85;3.53;;;;;;;;;;5075361;28;20447;-59
2023/03/31 07:16:05;;;;;;;5.70;3.20;;;;;;;;;;5074791;28;20390;-59
2023/03/31 07:18:33;;;;;;;7.68;3.55;;;;;;;;;;5074709;28;20086;-59
2023/03/31 07:20:59;;;;;;;5.65;2.92;;;;;;;;;;5074264;28;20036;-59
2023/03/31 07:23:25;;;;;;;7.03;2.75;;;;;;;;;;5074548;28;20473;-59
2023/03/31 07:25:51;;;;;;;5.60;2.53;;;;;;;;;;5075024;28;20029;-58
2023/03/31 07:28:17;;;;;;;2.35;1.58;;;;;;;;;;5074812;28;20039;-58
2023/03/31 07:30:43;;;;;;;3.38;1.83;;;;;;;;;;5074557;28;20060;-58
2023/03/31 07:33:09;;;;;;;4.93;2.58;;;;;;;;;;5074676;28;20375;-58
2023/03/31 07:35:39;;;;;;;5.43;1.98;;;;;;;;;;5074221;28;20071;-59
2023/03/31 07:38:07;;;;;;;3.47;2.08;;;;;;;;;;5074873;28;20413;-58
2023/03/31 07:40:33;;;;;;;6.45;1.48;;;;;;;;;;5073462;28;20077;-58
2023/03/31 07:42:59;;;;;;;3.40;1.70;;;;;;;;;;5074262;28;20108;-58
2023/03/31 07:45:25;;;;;;;5.60;1.77;;;;;;;;;;5074679;28;20035;-57
2023/03/31 07:47:51;;;;;;;2.50;1.45;;;;;;;;;;5074183;28;20028;-59
2023/03/31 07:50:18;;;;;;;4.10;1.17;;;;;;;;;;5074481;28;20040;-60
2023/03/31 07:52:44;;;;;;;2.28;1.20;;;;;;;;;;5073905;28;20364;-60
2023/03/31 07:55:11;;;;;;;2.63;1.45;;;;;;;;;;5074465;28;20374;-59
2023/03/31 07:57:37;;;;;;;2.05;0.85;;;;;;;;;;5074023;28;20059;-60
2023/03/31 08:00:06;;;;;;;2.70;1.52;;;;;;;;;;5074084;28;20024;-58
2023/03/31 08:02:32;;;;;;;2.92;0.73;;;;;;;;;;5073939;28;20103;-57
2023/03/31 08:04:58;;;;;;;3.28;1.10;;;;;;;;;;5073812;28;20028;-58
2023/03/31 08:07:24;;;;;;;1.05;0.60;;;;;;;;;;5074220;28;20040;-58
2023/03/31 08:09:51;;;;;;;1.30;0.75;;;;;;;;;;5073869;28;20032;-59
2023/03/31 08:12:17;;;;;;;0.45;0.30;;;;;;;;;;5074489;28;20074;-58
2023/03/31 08:14:43;;;;;;;1.23;0.63;;;;;;;;;;5073856;28;20052;-58
2023/03/31 08:17:09;;;;;;;1.38;0.55;;;;;;;;;;5074074;28;20040;-59
2023/03/31 08:19:35;;;;;;;1.02;0.40;;;;;;;;;;5073800;28;20066;-56
2023/03/31 08:22:01;;;;;;;1.70;0.50;;;;;;;;;;5073792;28;20025;-59
2023/03/31 08:24:27;;;;;;;0.95;0.47;;;;;;;;;;5074357;28;20025;-58
2023/03/31 08:26:53;;;;;;;1.42;0.80;;;;;;;;;;5073945;28;20039;-58
2023/03/31 08:29:20;;;;;;;1.50;0.70;;;;;;;;;;5074228;28;20025;-58
2023/03/31 08:31:45;;;;;;;1.00;0.50;;;;;;;;;;5073917;28;20576;-58
2023/03/31 08:34:11;;;;;;;2.05;0.90;;;;;;;;;;5073560;28;20060;-58
2023/03/31 08:36:37;;;;;;;2.33;0.63;;;;;;;;;;5074158;28;20024;-57
2023/03/31 08:39:03;;;;;;;1.10;0.50;;;;;;;;;;5073362;28;20029;-58
2023/03/31 08:41:47;;;;;;;1.20;0.70;;;;;;;;;;5073926;28;20063;-59
2023/03/31 08:44:28;;;;;;;0.88;0.32;;;;;;;;;;5074609;28;20450;-59
2023/03/31 08:46:55;;;;;;;0.85;0.40;;;;;;;;;;5073357;28;20070;-58
2023/03/31 08:49:21;;;;;;;3.20;0.60;;;;;;;;;;5073414;28;20028;-59
2023/03/31 08:51:50;;;;;;;1.20;0.57;;;;;;;;;;5076338;28;20034;-58
2023/03/31 08:54:18;;;;;;;1.88;0.50;;;;;;;;;;5077435;28;20020;-57
2023/03/31 08:56:47;;;;;;;3.38;0.88;;;;;;;;;;5077837;28;20034;-59
2023/03/31 08:59:19;;;;;;;1.20;0.50;;;;;;;;;;5077708;28;20095;-58
2023/03/31 09:01:45;;;;;;;1.73;0.90;;;;;;;;;;5077243;28;20532;-58
2023/03/31 09:04:14;;;;;;;1.70;0.90;;;;;;;;;;5077381;28;20092;-58
2023/03/31 09:07:03;;;;;;;1.80;0.90;;;;;;;;;;5077787;28;20036;-58
2023/03/31 09:09:38;;;;;;;4.88;0.65;;;;;;;;;;5058001;28;20074;-59
2023/03/31 09:12:13;;;;;;;1.83;0.60;;;;;;;;;;5077200;28;20082;-59
2023/03/31 09:14:51;;;;;;;2.45;1.02;;;;;;;;;;5077100;28;20479;-59
2023/03/31 09:17:26;;;;;;;3.28;0.90;;;;;;;;;;5077168;28;20535;-59
2023/03/31 09:19:54;;;;;;;1.83;0.75;;;;;;;;;;5077800;28;20024;-58
2023/03/31 09:22:22;;;;;;;2.95;0.73;;;;;;;;;;5076871;28;20466;-59
2023/03/31 09:24:54;;;;;;;1.80;0.63;;;;;;;;;;5077534;28;20028;-59
2023/03/31 09:27:20;;;;;;;1.63;0.60;;;;;;;;;;5077371;28;20371;-59
2023/03/31 09:29:55;;;;;;;1.88;0.65;;;;;;;;;;5077000;28;20028;-58
2023/03/31 09:32:27;;;;;;;2.60;0.70;;;;;;;;;;5076711;28;20078;-57
2023/03/31 09:34:56;;;;;;;3.45;0.57;;;;;;;;;;5076651;28;20025;-59
2023/03/31 09:37:22;;;;;;;1.10;0.50;;;;;;;;;;5077432;28;20033;-58
2023/03/31 09:39:48;;;;;;;1.40;0.50;;;;;;;;;;5076606;28;20024;-59
2023/03/31 09:42:15;;;;;;;5.50;0.93;;;;;;;;;;5076490;28;20482;-58
2023/03/31 09:44:42;;;;;;;3.10;0.88;;;;;;;;;;5076962;28;20021;-58
2023/03/31 09:47:14;;;;;;;5.18;0.68;;;;;;;;;;5077032;28;20473;-59
2023/03/31 09:49:41;;;;;;;1.95;0.75;;;;;;;;;;5076451;28;20033;-59
2023/03/31 09:52:40;;;;;;;2.85;0.70;;;;;;;;;;5076169;28;20024;-59
2023/03/31 09:55:14;;;;;;;2.53;0.90;;;;;;;;;;5053262;28;20429;-59
2023/03/31 09:57:40;;;;;;;2.08;0.75;;;;;;;;;;5076639;28;20028;-58
2023/03/31 10:00:12;;;;;;;2.72;1.35;;;;;;;;;;5076333;28;20371;-59
2023/03/31 10:02:40;;;;;;;3.28;0.82;;;;;;;;;;5076132;28;20056;-59
2023/03/31 10:05:07;;;;;;;2.30;0.70;;;;;;;;;;5076449;28;20474;-59
2023/03/31 10:07:33;;;;;;;3.15;1.13;;;;;;;;;;5076165;28;20044;-59
2023/03/31 10:10:00;;;;;;;2.03;0.77;;;;;;;;;;5076185;28;20107;-59
2023/03/31 10:12:28;;;;;;;1.58;0.82;;;;;;;;;;5076400;28;20103;-59
2023/03/31 10:15:01;;;;;;;3.75;1.00;;;;;;;;;;5075744;28;20051;-59
2023/03/31 10:17:28;;;;;;;2.70;1.00;;;;;;;;;;5076280;28;20063;-59
2023/03/31 10:19:58;;;;;;;3.75;0.95;;;;;;;;;;5076263;28;20024;-59
2023/03/31 10:22:28;;;;;;;7.40;1.27;;;;;;;;;;5075843;28;20115;-58
2023/03/31 10:25:03;;;;;;;5.03;1.58;;;;;;;;;;5076180;28;20017;-59
2023/03/31 10:27:31;;;;;;;4.65;0.77;;;;;;;;;;5076135;28;20037;-59
2023/03/31 10:29:58;;;;;;;3.97;0.63;;;;;;;;;;5076058;28;20028;-59
2023/03/31 10:32:27;;;;;;;2.67;0.40;;;;;;;;;;5075749;28;20028;-59
2023/03/31 10:34:53;;;;;;;2.17;1.17;;;;;;;;;;5075523;28;20029;-59
2023/03/31 10:37:21;;;;;;;1.92;1.30;;;;;;;;;;5075972;28;20038;-59
2023/03/31 10:39:48;;;;;;;5.07;0.90;;;;;;;;;;5075951;28;20113;-59
2023/03/31 10:42:23;;;;;;;2.33;1.10;;;;;;;;;;5075478;28;20025;-59
2023/03/31 10:44:49;;;;;;;4.53;0.95;;;;;;;;;;5075726;28;20025;-59
2023/03/31 10:47:15;;;;;;;6.03;0.90;;;;;;;;;;5075575;28;20035;-59
2023/03/31 10:49:43;;;;;;;6.15;1.00;;;;;;;;;;5075882;28;20024;-59
2023/03/31 10:52:19;;;;;;;4.53;0.98;;;;;;;;;;5075610;28;20108;-59
2023/03/31 10:54:46;;;;;;;3.75;1.20;;;;;;;;;;5075227;28;20024;-59
2023/03/31 10:57:12;;;;;;;6.13;1.15;;;;;;;;;;5076049;28;20485;-59
2023/03/31 10:59:58;;;;;;;4.57;1.38;;;;;;;;;;5075719;28;20029;-60
2023/03/31 11:02:49;;;;;;;1.58;0.60;;;;;;;;;;5075057;28;20033;-59
2023/03/31 11:05:21;;;;;;;2.97;1.17;;;;;;;;;;5075049;28;20025;-59
2023/03/31 11:07:50;;;;;;;1.02;0.55;;;;;;;;;;5075568;28;20340;-59
2023/03/31 11:10:19;;;;;;;3.17;1.23;;;;;;;;;;5074934;28;20127;-58
2023/03/31 11:12:52;;;;;;;5.88;0.85;;;;;;;;;;5075332;28;20025;-59
2023/03/31 11:15:21;;;;;;;6.72;1.27;;;;;;;;;;5075117;28;20135;-59
2023/03/31 11:18:05;;;;;;;6.47;1.20;;;;;;;;;;5074548;28;20481;-59
2023/03/31 11:20:31;;;;;;;3.20;1.10;;;;;;;;;;5074791;28;20031;-59
2023/03/31 11:22:57;;;;;;;3.80;0.80;;;;;;;;;;5074752;28;20103;-59
2023/03/31 11:25:27;;;;;;;2.05;0.93;;;;;;;;;;5074962;28;20040;-59
2023/03/31 11:28:07;;;;;;;0.60;0.55;;;;;;;;;;5075242;28;20028;-59
2023/03/31 11:30:46;;;;;;;0.80;0.22;;;;;;;;;;5075179;28;20029;-58
2023/03/31 11:33:18;;;;;;;0.25;0.17;;;;;;;;;;5074757;28;20029;-58
2023/03/31 11:35:53;;;;;;;0.50;0.30;;;;;;;;;;5074631;28;20435;-58
2023/03/31 11:38:35;;;;;;;0.63;0.13;;;;;;;;;;5074434;28;20021;-58
2023/03/31 11:41:08;;;;;;;0.03;0.00;;;;;;;;;;5073972;28;20104;-58
2023/03/31 11:43:39;;;;;;;0.03;0.00;;;;;;;;;;5074211;28;20102;-58
2023/03/31 11:46:05;;;;;;;1.98;0.95;;;;;;;;;;5074172;28;20028;-56
2023/03/31 11:48:44;;;;;;;0.40;0.20;;;;;;;;;;5074768;28;20020;-58
2023/03/31 11:51:23;;;;;;;0.43;0.22;;;;;;;;;;5075071;28;20402;-58
2023/03/31 11:53:51;;;;;;;0.63;0.15;;;;;;;;;;5074466;28;20073;-58
2023/03/31 11:56:18;;;;;;;0.88;0.52;;;;;;;;;;5074721;28;20021;-58
2023/03/31 11:58:46;;;;;;;0.68;0.45;;;;;;;;;;5073719;28;20024;-58
2023/03/31 12:01:27;;;;;;;0.47;0.22;;;;;;;;;;5073966;28;20115;-58
2023/03/31 12:04:00;;;;;;;0.03;0.00;;;;;;;;;;5074046;28;20031;-58
2023/03/31 12:06:31;;;;;;;0.38;0.10;;;;;;;;;;5072840;28;20025;-58
2023/03/31 12:09:19;;;;;;;0.13;0.10;;;;;;;;;;5074027;28;20360;-58
2023/03/31 12:11:53;;;;;;;0.35;0.10;;;;;;;;;;5073930;28;20089;-58
2023/03/31 12:14:19;;;;;;;2.22;0.40;;;;;;;;;;5074168;28;20037;-59
2023/03/31 12:16:47;;;;;;;0.28;0.08;;;;;;;;;;5074048;28;20028;-58
2023/03/31 12:19:13;;;;;;;0.17;0.08;;;;;;;;;;5073770;28;20526;-58
2023/03/31 12:21:41;;;;;;;0.00;0.00;;;;;;;;;;5073845;28;20107;-57
2023/03/31 12:24:11;;;;;;;0.45;0.15;;;;;;;;;;5073819;28;20099;-58
2023/03/31 12:26:44;;;;;;;0.22;0.10;;;;;;;;;;5073748;28;20032;-58
2023/03/31 12:29:29;;;;;;;0.65;0.20;;;;;;;;;;5074332;28;20033;-58
2023/03/31 12:31:56;;;;;;;2.28;0.73;;;;;;;;;;5073791;28;20149;-59
2023/03/31 12:34:23;;;;;;;1.45;0.47;;;;;;;;;;5073325;28;20493;-60
2023/03/31 12:37:04;;;;;;;0.98;0.40;;;;;;;;;;5074134;28;20190;-60
2023/03/31 12:39:36;;;;;;;0.50;0.22;;;;;;;;;;5073571;28;20032;-60
2023/03/31 12:42:08;;;;;;;0.43;0.13;;;;;;;;;;5073707;28;20048;-60
2023/03/31 12:44:52;;;;;;;0.03;0.03;;;;;;;;;;5074073;28;20028;-60
2023/03/31 12:47:18;;;;;;;1.17;0.30;;;;;;;;;;5073912;28;20103;-60
2023/03/31 12:49:54;;;;;;;0.10;0.10;;;;;;;;;;5073901;28;20029;-60
2023/03/31 12:52:20;;;;;;;2.05;0.32;;;;;;;;;;5073617;28;20485;-60
2023/03/31 12:55:04;;;;;;;0.57;0.30;;;;;;;;;;5073514;28;20062;-60
2023/03/31 12:57:31;;;;;;;1.15;0.40;;;;;;;;;;5073849;28;20028;-60
2023/03/31 13:00:19;;;;;;;1.17;0.40;;;;;;;;;;5073377;28;20017;-60
2023/03/31 13:02:46;;;;;;;0.73;0.30;;;;;;;;;;5066541;28;20028;-60
2023/03/31 13:05:30;;;;;;;3.22;0.50;;;;;;;;;;5074173;28;20111;-60
2023/03/31 13:07:57;;;;;;;2.17;0.75;;;;;;;;;;5073852;28;20485;-60
2023/03/31 13:10:25;;;;;;;1.30;0.30;;;;;;;;;;5073274;28;20366;-60
2023/03/31 13:13:14;;;;;;;1.85;0.47;;;;;;;;;;5073205;28;20021;-60
2023/03/31 13:15:40;;;;;;;3.45;0.30;;;;;;;;;;5073826;28;20048;-60
2023/03/31 13:18:07;;;;;;;4.82;1.02;;;;;;;;;;5073514;28;20021;-60
2023/03/31 13:20:36;;;;;;;3.65;0.80;;;;;;;;;;5073631;28;20409;-60
2023/03/31 13:23:07;;;;;;;3.00;0.65;;;;;;;;;;5073114;28;20032;-60
2023/03/31 13:25:42;;;;;;;5.07;1.05;;;;;;;;;;5073633;28;20067;-60
2023/03/31 13:28:14;;;;;;;2.45;0.70;;;;;;;;;;5073341;28;20480;-60
2023/03/31 13:30:40;;;;;;;0.98;0.47;;;;;;;;;;5072946;28;20074;-60
2023/03/31 13:33:12;;;;;;;1.13;0.50;;;;;;;;;;5072973;28;20021;-60
2023/03/31 13:35:41;;;;;;;5.05;0.60;;;;;;;;;;5073521;28;20033;-60
2023/03/31 13:38:27;;;;;;;0.73;0.15;;;;;;;;;;5074621;28;20489;-60
2023/03/31 13:41:12;;;;;;;0.45;0.22;;;;;;;;;;5076856;28;20447;-60
2023/03/31 13:43:52;;;;;;;0.45;0.22;;;;;;;;;;5076471;28;20029;-60
2023/03/31 13:46:27;;;;;;;0.80;0.30;;;;;;;;;;5076550;28;20031;-60
2023/03/31 13:49:02;;;;;;;0.90;0.28;;;;;;;;;;5076517;28;20029;-60
2023/03/31 13:51:40;;;;;;;1.13;0.38;;;;;;;;;;5076845;28;20039;-60
2023/03/31 13:54:25;;;;;;;0.30;0.15;;;;;;;;;;5076425;28;20028;-60
2023/03/31 13:57:00;;;;;;;0.65;0.43;;;;;;;;;;5076955;28;20060;-60
2023/03/31 13:59:37;;;;;;;3.83;0.10;;;;;;;;;;5076649;28;20029;-60
2023/03/31 14:02:22;;;;;;;0.00;0.00;;;;;;;;;;5076927;28;20028;-60
2023/03/31 14:04:51;;;;;;;0.00;0.00;;;;;;;;;;5076339;28;20366;-60
2023/03/31 14:07:26;;;;;;;0.40;0.08;;;;;;;;;;5076151;28;20106;-60
2023/03/31 14:09:52;;;;;;;0.00;0.00;;;;;;;;;;5076517;28;20116;-60
2023/03/31 14:12:30;;;;;;;0.45;0.10;;;;;;;;;;5076569;28;20409;-60
2023/03/31 14:14:56;;;;;;;0.50;0.10;;;;;;;;;;5074666;28;20103;-60
2023/03/31 14:17:26;;;;;;;0.35;0.20;;;;;;;;;;5076083;28;20032;-61
2023/03/31 14:20:07;;;;;;;0.22;0.08;;;;;;;;;;5075976;28;20032;-60
2023/03/31 14:22:47;;;;;;;1.00;0.30;;;;;;;;;;5075855;28;20025;-60
2023/03/31 14:25:45;;;;;;;0.10;0.10;;;;;;;;;;5076207;28;20351;-60
2023/03/31 14:28:30;;;;;;;2.08;0.65;;;;;;;;;;5052692;28;20028;-60
2023/03/31 14:31:09;;;;;;;1.05;0.30;;;;;;;;;;5075645;28;20032;-60
2023/03/31 14:33:38;;;;;;;0.77;0.17;;;;;;;;;;5075442;28;20024;-60
2023/03/31 14:36:11;;;;;;;0.10;0.10;;;;;;;;;;5075390;28;20500;-60
2023/03/31 14:38:37;;;;;;;0.20;0.10;;;;;;;;;;5075402;28;20029;-60
2023/03/31 14:41:03;;;;;;;0.05;0.00;;;;;;;;;;5075444;28;20520;-60
2023/03/31 14:43:32;;;;;;;0.65;0.32;;;;;;;;;;5075042;28;20463;-61
2023/03/31 14:46:02;;;;;;;0.68;0.13;;;;;;;;;;5075493;28;20032;-61
2023/03/31 14:48:29;;;;;;;3.38;0.30;;;;;;;;;;5075004;28;20032;-60
2023/03/31 14:51:00;;;;;;;1.85;0.40;;;;;;;;;;5075210;28;20478;-60
2023/03/31 14:53:27;;;;;;;1.02;0.17;;;;;;;;;;5075252;28;20028;-61
2023/03/31 14:56:01;;;;;;;0.60;0.25;;;;;;;;;;5076005;28;20032;-61
2023/03/31 14:58:29;;;;;;;1.50;0.25;;;;;;;;;;5076036;28;20112;-61